Aughton, United Kingdom

11:39 AM GMT on January 29, 2015 (GMT +0000)
Bickerstaffe | Change Station
CLOSE
Current Station
Personal Weather Station
Location: Bickerstaffe,
Elevation: 167 ft
Nearby Weather Stations

Elev 167 ft 53.53 °N, 2.86 °W | Updated 12 seconds ago

Light Snow
Light Snow
34.0 °F
Feels Like 29 °F
N
6.0
Wind Variable Wind from SSW
Gusts 13.0 mph

Today
High -- | Low -- °F
--% Chance of Precip.
Yesterday
High -- | Low -- °F
Precip. -- in
8:02 AM 4:47 PM
Waxing Gibbous, 73% visible
Pressure 28.94 in
Visibility 5.0 miles
Clouds Scattered Clouds 500 ft
Mostly Cloudy 1500 ft
Windchill 29 °F
Dew Point 29 °F
Humidity 82%
Rainfall 0.05 in
Snow Depth Not available.
UV 1 out of 12
Pollen Not available.
Air Quality Not available.
Flu Activity Not available.
METAR EGGP 291120Z 30013KT 280V340 8000 -SN SCT005 BKN015 02/01 Q0980

More Conditions Fewer Conditions

Pressure 28.94 in
Visibility 5.0 miles
Clouds Scattered Clouds 500 ft
Mostly Cloudy 1500 ft
Windchill 29 °F
Dew Point 29 °F
Humidity 82%
Rainfall 0.05 in
Snow Depth Not available.
UV 1 out of 12
Pollen Not available.
Air Quality Not available.
Flu Activity Not available.
METAR EGGP 291120Z 30013KT 280V340 8000 -SN SCT005 BKN015 02/01 Q0980

More Conditions Fewer Conditions

10-Day Weather Forecast

Almanac

Astronomy

Jan. 29, 2015 Rise Set
Actual Time
Civil Twilight
Nautical Twilight
Astronomical Twilight
Moon
Length of Visible Light
Length of Day
Tomorrow will be .
, % of the Moon is Illuminated

Today's Extremes

Country Highs Country Lows

Community

WunderPhotos

Upload Photos

1,791,407 photos uploaded!

WunderBlogs® & News

Nearby

Air Quality

  Air Quality AQ Index Pollutant
Not available.

Snow Depth

Station Depth Elevation

Earthquake Activity

City Distance Mag. Time & Date
Minimum magnitude displayed is 2.5.

Coastal Water Temperatures

Place Temperature

Nearby Weather Stations